createdAt,value
2022-08-31T00:02:22.623Z,99595.88
2022-08-31T00:07:27.583Z,99596.22
2022-08-31T00:12:32.051Z,99593.25
2022-08-31T00:17:35.101Z,99584.19
2022-08-31T00:22:38.222Z,99583.81
2022-08-31T00:27:42.546Z,99591.84
2022-08-31T00:32:45.532Z,99590.81
2022-08-31T00:37:51.186Z,99592.91
2022-08-31T00:42:56.467Z,99593.81
2022-08-31T00:47:59.456Z,99598.75
2022-08-31T00:53:02.622Z,99599.22
2022-08-31T00:58:11.800Z,99598.75
2022-08-31T01:03:14.837Z,99602.09
2022-08-31T01:08:17.921Z,99609.09
2022-08-31T01:13:26.149Z,99603.78
2022-08-31T01:18:31.779Z,99599.00
2022-08-31T01:23:40.093Z,99601.63
2022-08-31T01:28:43.761Z,99610.78
2022-08-31T01:33:46.778Z,99607.88
2022-08-31T01:38:53.353Z,99596.50
2022-08-31T01:43:57.202Z,99616.91
2022-08-31T01:49:00.730Z,99607.84
2022-08-31T01:54:05.757Z,99605.25
2022-08-31T01:59:10.457Z,99603.25
2022-08-31T02:04:35.079Z,99597.41
2022-08-31T02:09:39.469Z,99590.97
2022-08-31T02:14:42.541Z,99586.13
2022-08-31T02:19:45.582Z,99587.84
2022-08-31T02:24:51.767Z,99581.38
2022-08-31T02:29:54.863Z,99578.41
2022-08-31T02:34:58.305Z,99569.56
2022-08-31T02:40:02.976Z,99565.59
2022-08-31T02:45:09.060Z,99566.53
2022-08-31T02:50:12.481Z,99570.66
2022-08-31T02:55:17.982Z,99573.59
2022-08-31T03:00:22.783Z,99573.00
2022-08-31T03:05:26.924Z,99580.03
2022-08-31T03:10:31.352Z,99577.03
2022-08-31T03:15:34.445Z,99578.03
2022-08-31T03:20:39.890Z,99575.88
2022-08-31T03:25:44.268Z,99574.06
2022-08-31T03:30:47.818Z,99574.81
2022-08-31T03:35:51.446Z,99575.09
2022-08-31T03:40:56.447Z,99575.53
2022-08-31T03:45:59.457Z,99576.59
2022-08-31T03:51:02.662Z,99575.41
2022-08-31T03:56:11.271Z,99583.81
2022-08-31T04:01:17.979Z,99585.88
2022-08-31T04:06:41.128Z,99590.06
2022-08-31T04:12:04.557Z,99580.25
2022-08-31T04:17:25.834Z,99591.22
2022-08-31T04:22:36.759Z,99589.31
2022-08-31T04:28:04.471Z,99599.41
2022-08-31T04:33:07.572Z,99601.63
2022-08-31T04:38:12.110Z,99605.00
2022-08-31T04:43:18.566Z,99608.41
2022-08-31T04:48:21.737Z,99605.94
2022-08-31T04:53:25.038Z,99608.28
2022-08-31T04:58:29.440Z,99612.88
2022-08-31T05:03:32.670Z,99615.72
2022-08-31T05:08:36.133Z,99618.50
2022-08-31T05:13:41.649Z,99631.94
2022-08-31T05:18:47.515Z,99632.38
2022-08-31T05:23:50.909Z,99637.41
2022-08-31T05:28:55.545Z,99639.63
2022-08-31T05:33:59.567Z,99633.31
2022-08-31T05:39:13.223Z,99634.25
2022-08-31T05:44:21.373Z,99636.06
2022-08-31T05:49:28.114Z,99646.53
2022-08-31T05:54:35.582Z,99643.75
2022-08-31T05:59:41.107Z,99653.91
2022-08-31T06:04:45.261Z,99652.69
2022-08-31T06:09:48.434Z,99659.84
2022-08-31T06:14:56.936Z,99664.72
2022-08-31T06:20:00.346Z,99661.50
2022-08-31T06:25:04.807Z,99665.50
2022-08-31T06:30:11.580Z,99679.44
2022-08-31T06:35:15.013Z,99678.81
2022-08-31T06:40:36.864Z,99684.56
2022-08-31T06:45:59.524Z,99685.56
2022-08-31T06:51:09.337Z,99684.63
2022-08-31T06:56:20.625Z,99684.50
2022-08-31T07:01:44.413Z,99673.09
2022-08-31T07:06:54.651Z,99681.56
2022-08-31T07:11:57.845Z,99689.13
2022-08-31T07:17:03.979Z,99700.44
2022-08-31T07:22:13.430Z,99696.13
2022-08-31T07:27:20.718Z,99691.59
2022-08-31T07:32:30.019Z,99692.03
2022-08-31T07:37:51.056Z,99691.72
2022-08-31T07:43:02.199Z,99702.75
2022-08-31T07:48:07.436Z,99699.38
2022-08-31T07:53:47.537Z,99700.03
2022-08-31T07:59:15.089Z,99692.41
2022-08-31T08:04:25.543Z,99700.88
2022-08-31T08:09:30.867Z,99700.03
2022-08-31T08:15:08.787Z,99704.22
2022-08-31T08:20:37.182Z,99702.94
2022-08-31T08:25:40.958Z,99697.31
2022-08-31T08:30:58.426Z,99706.47
2022-08-31T08:36:07.825Z,99711.22
2022-08-31T08:41:15.333Z,99706.97
2022-08-31T08:46:34.443Z,99705.81
2022-08-31T08:51:40.810Z,99722.78
2022-08-31T08:56:49.049Z,99718.78
2022-08-31T09:02:02.144Z,99716.03
2022-08-31T09:07:31.225Z,99722.13
2022-08-31T09:12:47.044Z,99713.50
2022-08-31T09:18:00.217Z,99715.47
2022-08-31T09:23:08.044Z,99719.47
2022-08-31T09:28:16.441Z,99718.69
2022-08-31T09:33:21.428Z,99714.16
2022-08-31T09:38:30.908Z,99715.59
2022-08-31T09:43:38.647Z,99708.81
2022-08-31T09:48:51.471Z,99708.97
2022-08-31T09:54:17.825Z,99722.53
2022-08-31T09:59:31.495Z,99715.81
2022-08-31T10:04:38.175Z,99704.09
2022-08-31T10:09:47.117Z,99699.34
2022-08-31T10:14:54.853Z,99697.44
2022-08-31T10:20:05.985Z,99698.19
2022-08-31T10:25:22.180Z,99692.13
2022-08-31T10:30:32.220Z,99688.34
2022-08-31T10:35:44.926Z,99692.22
2022-08-31T10:40:53.441Z,99691.69
2022-08-31T10:45:56.579Z,99690.34
2022-08-31T10:51:14.248Z,99685.81
2022-08-31T10:56:24.751Z,99682.63
2022-08-31T11:01:39.279Z,99682.03
2022-08-31T11:06:52.667Z,99676.94
2022-08-31T11:12:06.962Z,99680.31
2022-08-31T11:17:28.692Z,99688.94
2022-08-31T11:22:47.105Z,99675.59
2022-08-31T11:27:56.164Z,99677.28
2022-08-31T11:33:03.183Z,99677.03
2022-08-31T11:38:06.216Z,99686.38
2022-08-31T11:43:15.128Z,99680.41
2022-08-31T11:48:51.551Z,99676.19
2022-08-31T11:53:55.505Z,99685.28
2022-08-31T11:59:21.485Z,99673.53
2022-08-31T12:05:00.366Z,99670.34
2022-08-31T12:10:43.214Z,99661.66
2022-08-31T12:16:19.055Z,99657.09
2022-08-31T12:21:48.476Z,99660.41
2022-08-31T12:27:11.895Z,99673.00
2022-08-31T12:32:23.367Z,99664.50
2022-08-31T12:37:30.123Z,99658.34
2022-08-31T12:42:35.460Z,99655.69
2022-08-31T12:47:49.290Z,99651.13
2022-08-31T12:53:07.946Z,99647.88
2022-08-31T12:58:28.517Z,99644.97
2022-08-31T13:03:33.270Z,99647.75
2022-08-31T13:08:40.087Z,99644.91
2022-08-31T13:13:43.244Z,99647.75
2022-08-31T13:18:48.334Z,99650.09
2022-08-31T13:23:51.671Z,99638.81
2022-08-31T13:28:57.009Z,99633.97
2022-08-31T13:34:03.395Z,99642.06
2022-08-31T13:39:15.846Z,99634.00
2022-08-31T13:44:23.725Z,99630.78
2022-08-31T13:49:35.545Z,99628.03
2022-08-31T13:54:39.072Z,99615.19
2022-08-31T13:59:42.508Z,99631.41
2022-08-31T14:05:01.345Z,99636.19
2022-08-31T14:10:19.286Z,99633.81
2022-08-31T14:15:33.517Z,99634.06
2022-08-31T14:20:46.480Z,99633.28
2022-08-31T14:25:58.842Z,99623.97
2022-08-31T14:31:12.368Z,99621.56
2022-08-31T14:36:19.340Z,99609.97
2022-08-31T14:41:30.376Z,99617.00
2022-08-31T14:46:34.037Z,99626.88
2022-08-31T14:51:39.294Z,99621.31
2022-08-31T14:56:48.902Z,99619.69
2022-08-31T15:01:52.080Z,99612.50
2022-08-31T15:07:06.571Z,99611.16
2022-08-31T15:12:14.964Z,99606.88
2022-08-31T15:17:20.527Z,99606.38
2022-08-31T15:22:26.842Z,99605.03
2022-08-31T15:27:31.721Z,99617.81
2022-08-31T15:32:35.321Z,99603.72
2022-08-31T15:37:41.237Z,99620.19
2022-08-31T15:42:45.219Z,99603.69
2022-08-31T15:48:05.844Z,99609.97
2022-08-31T15:53:13.488Z,99600.72
2022-08-31T15:58:16.624Z,99601.53
2022-08-31T16:03:19.592Z,99608.16
2022-08-31T16:08:28.579Z,99599.41
2022-08-31T16:13:31.693Z,99604.47
2022-08-31T16:18:34.692Z,99600.47
2022-08-31T16:23:39.752Z,99602.09
2022-08-31T16:28:43.850Z,99601.22
2022-08-31T16:33:48.161Z,99602.59
2022-08-31T16:38:54.487Z,99594.84
2022-08-31T16:44:18.524Z,99592.44
2022-08-31T16:49:38.848Z,99594.59
2022-08-31T16:54:48.024Z,99596.72
2022-08-31T16:59:51.599Z,99587.59
2022-08-31T17:04:54.794Z,99588.84
2022-08-31T17:10:07.110Z,99603.31
2022-08-31T17:15:12.188Z,99596.13
2022-08-31T17:20:16.373Z,99602.47
2022-08-31T17:25:24.109Z,99612.91
2022-08-31T17:30:27.335Z,99612.06
2022-08-31T17:35:32.024Z,99610.47
2022-08-31T17:40:36.459Z,99616.88
2022-08-31T17:45:39.662Z,99616.81
2022-08-31T17:50:43.280Z,99622.13
2022-08-31T17:55:57.466Z,99621.56
2022-08-31T18:01:00.698Z,99619.41
2022-08-31T18:06:03.755Z,99623.06
2022-08-31T18:11:08.360Z,99633.91
2022-08-31T18:16:14.066Z,99633.84
2022-08-31T18:21:18.730Z,99641.44
2022-08-31T18:26:26.214Z,99640.25
2022-08-31T18:31:31.393Z,99647.00
2022-08-31T18:36:38.841Z,99648.72
2022-08-31T18:42:01.130Z,99655.50
2022-08-31T18:47:07.919Z,99658.66
2022-08-31T18:52:19.560Z,99656.81
2022-08-31T18:57:26.566Z,99661.59
2022-08-31T19:02:29.770Z,99661.22
2022-08-31T19:07:32.857Z,99654.22
2022-08-31T19:12:39.138Z,99661.16
2022-08-31T19:17:45.544Z,99660.22
2022-08-31T19:22:48.622Z,99657.75
2022-08-31T19:27:53.435Z,99654.53
2022-08-31T19:32:56.971Z,99656.56
2022-08-31T19:37:59.997Z,99654.91
2022-08-31T19:48:32.099Z,99658.66
2022-08-31T19:53:35.151Z,99654.63
2022-08-31T19:58:48.449Z,99648.34
2022-08-31T20:03:52.034Z,99652.28
2022-08-31T20:08:55.552Z,99650.75
2022-08-31T20:14:01.335Z,99645.97
2022-08-31T20:19:08.816Z,99649.13
2022-08-31T20:24:14.354Z,99651.88
2022-08-31T20:29:20.272Z,99655.03
2022-08-31T20:34:26.432Z,99653.50
2022-08-31T20:39:31.829Z,99648.69
2022-08-31T20:44:38.332Z,99651.50
2022-08-31T20:49:43.007Z,99651.56
2022-08-31T20:54:46.257Z,99661.81
2022-08-31T20:59:51.407Z,99654.88
2022-08-31T21:04:54.435Z,99655.13
2022-08-31T21:09:58.744Z,99655.19
2022-08-31T21:15:05.718Z,99659.03
2022-08-31T21:20:09.425Z,99658.97
2022-08-31T21:25:12.923Z,99661.50
2022-08-31T21:30:18.779Z,99664.06
2022-08-31T21:35:21.898Z,99660.84
2022-08-31T21:40:24.958Z,99662.88
2022-08-31T21:45:29.591Z,99661.25
2022-08-31T21:50:32.590Z,99666.13
2022-08-31T21:55:38.523Z,99669.47
2022-08-31T22:00:43.039Z,99668.66
2022-08-31T22:05:46.033Z,99670.13
2022-08-31T22:10:50.144Z,99667.25
2022-08-31T22:15:56.638Z,99675.09
2022-08-31T22:20:59.837Z,99669.66
2022-08-31T22:26:03.564Z,99672.66
2022-08-31T22:31:08.967Z,99672.75
2022-08-31T22:36:19.515Z,99671.47
2022-08-31T22:41:36.189Z,99667.09
2022-08-31T22:46:41.238Z,99669.28
2022-08-31T22:51:46.949Z,99665.91
2022-08-31T22:56:50.756Z,99666.06
2022-08-31T23:01:57.024Z,99667.63
2022-08-31T23:07:01.448Z,99661.66
2022-08-31T23:12:06.213Z,99667.72
2022-08-31T23:17:10.658Z,99673.19
2022-08-31T23:22:15.460Z,99657.78
2022-08-31T23:27:21.629Z,99661.41
2022-08-31T23:32:29.109Z,99654.75
2022-08-31T23:37:33.088Z,99646.69
2022-08-31T23:42:41.160Z,99644.50
2022-08-31T23:47:45.734Z,99643.84
2022-08-31T23:52:52.150Z,99649.06
2022-08-31T23:57:57.339Z,99647.72
